createdAt,value
2022-11-12T00:00:13.924Z,98632.00
2022-11-12T00:05:34.463Z,98631.00
2022-11-12T00:10:54.074Z,98625.00
2022-11-12T00:16:13.314Z,98622.00
2022-11-12T00:21:32.901Z,98632.00
2022-11-12T00:26:52.504Z,98637.00
2022-11-12T00:32:12.826Z,98638.00
2022-11-12T00:37:32.300Z,98638.00
2022-11-12T00:42:52.222Z,98642.00
2022-11-12T00:48:15.418Z,98649.00
2022-11-12T00:53:35.086Z,98664.00
2022-11-12T00:58:54.610Z,98661.00
2022-11-12T01:04:14.033Z,98666.00
2022-11-12T01:09:33.526Z,98666.00
2022-11-12T01:14:52.909Z,98671.00
2022-11-12T01:20:12.593Z,98656.00
2022-11-12T01:25:32.112Z,98652.00
2022-11-12T01:30:51.682Z,98651.00
2022-11-12T01:36:13.304Z,98647.00
2022-11-12T01:41:35.162Z,98649.00
2022-11-12T01:47:17.927Z,98642.00
2022-11-12T01:52:54.111Z,98635.00
2022-11-12T01:58:18.764Z,98630.00
2022-11-12T02:03:38.162Z,98625.00
2022-11-12T02:08:57.764Z,98632.00
2022-11-12T02:14:17.045Z,98630.00
2022-11-12T02:19:37.254Z,98621.00
2022-11-12T02:24:56.333Z,98618.00
2022-11-12T02:30:29.989Z,98614.00
2022-11-12T02:35:49.194Z,98612.00
2022-11-12T02:41:09.417Z,98618.00
2022-11-12T02:46:28.721Z,98609.00
2022-11-12T02:51:48.294Z,98623.00
2022-11-12T02:57:07.900Z,98613.00
2022-11-12T03:02:27.485Z,98599.00
2022-11-12T03:07:47.007Z,98587.00
2022-11-12T03:13:06.564Z,98597.00
2022-11-12T03:18:26.352Z,98590.00
2022-11-12T03:23:45.942Z,98592.00
2022-11-12T03:29:05.348Z,98589.00
2022-11-12T03:34:24.835Z,98585.00
2022-11-12T03:39:44.522Z,98585.00
2022-11-12T03:45:04.805Z,98581.00
2022-11-12T03:50:27.083Z,98581.00
2022-11-12T03:55:46.150Z,98580.00
2022-11-12T04:01:06.458Z,98569.00
2022-11-12T04:06:48.810Z,98573.00
2022-11-12T04:12:26.967Z,98572.00
2022-11-12T04:18:04.975Z,98576.00
2022-11-12T04:23:24.226Z,98570.00
2022-11-12T04:30:15.266Z,98569.00
2022-11-12T04:35:34.955Z,98582.00
2022-11-12T04:41:13.312Z,98592.00
2022-11-12T04:46:33.071Z,98589.00
2022-11-12T04:52:04.490Z,98592.00
2022-11-12T04:57:24.242Z,98580.00
2022-11-12T05:02:43.516Z,98585.00
2022-11-12T05:08:03.139Z,98585.00
2022-11-12T05:13:22.506Z,98584.00
2022-11-12T05:18:42.092Z,98592.00
2022-11-12T05:24:01.626Z,98591.00
2022-11-12T05:29:21.284Z,98592.00
2022-11-12T05:34:41.368Z,98593.00
2022-11-12T05:40:00.759Z,98584.00
2022-11-12T05:45:20.248Z,98584.00
2022-11-12T05:51:06.207Z,98591.00
2022-11-12T05:56:31.925Z,98577.00
2022-11-12T06:01:51.496Z,98579.00
2022-11-12T06:07:10.683Z,98585.00
2022-11-12T06:12:30.603Z,98602.00
2022-11-12T06:17:50.081Z,98616.00
2022-11-12T06:23:12.608Z,98611.00
2022-11-12T06:28:32.319Z,98618.00
2022-11-12T06:33:51.880Z,98623.00
2022-11-12T06:39:11.807Z,98634.00
2022-11-12T06:44:31.454Z,98638.00
2022-11-12T06:49:51.206Z,98638.00
2022-11-12T06:55:10.824Z,98640.00
2022-11-12T07:00:31.049Z,98634.00
2022-11-12T07:05:50.354Z,98639.00
2022-11-12T07:11:10.292Z,98638.00
2022-11-12T07:16:29.946Z,98638.00
2022-11-12T07:21:49.462Z,98638.00
2022-11-12T07:27:08.830Z,98637.00
2022-11-12T07:32:29.151Z,98632.00
2022-11-12T07:37:48.341Z,98639.00
2022-11-12T07:43:08.054Z,98646.00
2022-11-12T07:48:29.603Z,98643.00
2022-11-12T07:53:52.676Z,98645.00
2022-11-12T07:59:16.129Z,98640.00
2022-11-12T08:04:35.595Z,98656.00
2022-11-12T08:09:55.100Z,98652.00
2022-11-12T08:15:14.844Z,98643.00
2022-11-12T08:20:34.254Z,98658.00
2022-11-12T08:26:01.117Z,98649.00
2022-11-12T08:31:23.500Z,98645.00
2022-11-12T08:36:42.883Z,98648.00
2022-11-12T08:42:05.516Z,98644.00
2022-11-12T08:47:24.993Z,98652.00
2022-11-12T08:52:44.617Z,98645.00
2022-11-12T08:58:05.399Z,98635.00
2022-11-12T09:03:26.029Z,98645.00
2022-11-12T09:08:45.385Z,98645.00
2022-11-12T09:14:05.184Z,98640.00
2022-11-12T09:19:24.578Z,98638.00
2022-11-12T09:24:44.184Z,98651.00
2022-11-12T09:30:05.841Z,98649.00
2022-11-12T09:35:25.122Z,98641.00
2022-11-12T09:41:16.848Z,98632.00
2022-11-12T09:46:56.925Z,98634.00
2022-11-12T09:52:23.432Z,98636.00
2022-11-12T09:57:42.661Z,98629.00
2022-11-12T10:03:36.948Z,98632.00
2022-11-12T10:09:04.631Z,98630.00
2022-11-12T10:15:20.958Z,98616.00
2022-11-12T10:22:18.453Z,98627.00
2022-11-12T10:27:40.862Z,98631.00
2022-11-12T10:33:00.882Z,98631.00
2022-11-12T10:38:26.417Z,98636.00
2022-11-12T10:43:59.071Z,98630.00
2022-11-12T10:49:24.478Z,98616.00
2022-11-12T10:54:43.724Z,98616.00
2022-11-12T11:00:19.762Z,98620.00
2022-11-12T11:07:31.415Z,98606.00
2022-11-12T11:13:08.833Z,98594.00
2022-11-12T11:18:30.480Z,98589.00
2022-11-12T11:24:36.156Z,98581.00
2022-11-12T11:30:19.217Z,98582.00
2022-11-12T11:36:18.212Z,98582.00
2022-11-12T11:42:58.276Z,98571.00
2022-11-12T11:51:36.117Z,98574.00
2022-11-12T11:56:59.454Z,98576.00
2022-11-12T12:03:57.736Z,98570.00
2022-11-12T12:11:14.429Z,98567.00
2022-11-12T12:19:49.084Z,98566.00
2022-11-12T12:25:20.886Z,98562.00
2022-11-12T12:30:44.772Z,98555.00
2022-11-12T12:36:16.654Z,98561.00
2022-11-12T12:42:08.579Z,98564.00
2022-11-12T12:47:30.598Z,98552.00
2022-11-12T12:53:16.242Z,98539.00
2022-11-12T12:58:45.177Z,98543.00
2022-11-12T13:04:08.396Z,98534.00
2022-11-12T13:09:28.365Z,98535.00
2022-11-12T13:15:07.344Z,98520.00
2022-11-12T13:20:35.788Z,98512.00
2022-11-12T13:26:51.362Z,98512.00
2022-11-12T13:32:33.968Z,98502.00
2022-11-12T13:38:05.562Z,98516.00
2022-11-12T13:43:36.219Z,98518.00
2022-11-12T13:49:08.070Z,98509.00
2022-11-12T13:54:37.871Z,98519.00
2022-11-12T14:00:26.420Z,98523.00
2022-11-12T14:05:50.032Z,98522.00
2022-11-12T14:11:38.669Z,98522.00
2022-11-12T14:17:30.881Z,98501.00
2022-11-12T14:22:50.753Z,98500.00
2022-11-12T14:28:31.634Z,98491.00
2022-11-12T14:33:50.900Z,98484.00
2022-11-12T14:39:10.926Z,98475.00
2022-11-12T14:44:35.583Z,98466.00
2022-11-12T14:49:57.131Z,98454.00
2022-11-12T14:55:27.353Z,98452.00
2022-11-12T15:00:50.619Z,98443.00
2022-11-12T15:06:10.959Z,98449.00
2022-11-12T15:11:44.476Z,98440.00
2022-11-12T15:17:05.375Z,98442.00
2022-11-12T15:22:28.238Z,98442.00
2022-11-12T15:27:48.522Z,98433.00
2022-11-12T15:33:20.548Z,98430.00
2022-11-12T15:38:40.223Z,98419.00
2022-11-12T15:43:59.768Z,98433.00
2022-11-12T15:49:19.104Z,98429.00
2022-11-12T15:54:41.478Z,98412.00
2022-11-12T16:00:08.355Z,98421.00
2022-11-12T16:05:34.737Z,98414.00
2022-11-12T16:10:54.672Z,98414.00
2022-11-12T16:16:14.791Z,98416.00
2022-11-12T16:21:34.837Z,98415.00
2022-11-12T16:27:01.652Z,98418.00
2022-11-12T16:32:21.340Z,98417.00
2022-11-12T16:37:42.933Z,98412.00
2022-11-12T16:43:02.698Z,98410.00
2022-11-12T16:48:22.156Z,98407.00
2022-11-12T16:53:41.890Z,98400.00
2022-11-12T16:59:01.349Z,98394.00
2022-11-12T17:04:23.703Z,98400.00
2022-11-12T17:09:43.073Z,98399.00
2022-11-12T17:15:03.324Z,98397.00
2022-11-12T17:20:32.199Z,98401.00
2022-11-12T17:26:00.093Z,98400.00
2022-11-12T17:31:24.182Z,98402.00
2022-11-12T17:36:47.443Z,98400.00
2022-11-12T17:42:07.249Z,98412.00
2022-11-12T17:47:27.041Z,98408.00
2022-11-12T17:52:46.425Z,98398.00
2022-11-12T17:58:06.627Z,98392.00
2022-11-12T18:03:26.133Z,98384.00
2022-11-12T18:08:56.118Z,98382.00
2022-11-12T18:14:16.601Z,98377.00
2022-11-12T18:19:38.753Z,98382.00
2022-11-12T18:24:58.008Z,98378.00
2022-11-12T18:30:19.446Z,98379.00
2022-11-12T18:35:39.415Z,98380.00
2022-11-12T18:41:04.360Z,98371.00
2022-11-12T18:46:23.839Z,98371.00
2022-11-12T18:51:43.476Z,98368.00
2022-11-12T18:57:03.009Z,98358.00
2022-11-12T19:02:22.295Z,98359.00
2022-11-12T19:07:41.913Z,98356.00
2022-11-12T19:13:03.336Z,98348.00
2022-11-12T19:18:22.811Z,98342.00
2022-11-12T19:23:42.778Z,98333.00
2022-11-12T19:29:02.346Z,98336.00
2022-11-12T19:34:21.814Z,98331.00
2022-11-12T19:39:41.583Z,98335.00
2022-11-12T19:45:04.813Z,98330.00
2022-11-12T19:50:30.625Z,98335.00
2022-11-12T19:55:50.175Z,98330.00
2022-11-12T20:01:12.609Z,98319.00
2022-11-12T20:06:32.357Z,98327.00
2022-11-12T20:11:51.949Z,98319.00
2022-11-12T20:17:11.795Z,98310.00
2022-11-12T20:22:34.255Z,98304.00
2022-11-12T20:27:57.629Z,98305.00
2022-11-12T20:33:17.062Z,98302.00
2022-11-12T20:38:41.366Z,98299.00
2022-11-12T20:44:02.259Z,98301.00
2022-11-12T20:49:21.906Z,98294.00
2022-11-12T20:54:41.360Z,98296.00
2022-11-12T21:00:01.127Z,98293.00
2022-11-12T21:05:20.839Z,98290.00
2022-11-12T21:10:40.649Z,98281.00
2022-11-12T21:16:00.845Z,98277.00
2022-11-12T21:21:20.439Z,98266.00
2022-11-12T21:26:39.835Z,98275.00
2022-11-12T21:31:59.924Z,98257.00
2022-11-12T21:37:19.315Z,98259.00
2022-11-12T21:42:45.353Z,98251.00
2022-11-12T21:48:10.770Z,98245.00
2022-11-12T21:53:30.287Z,98247.00
2022-11-12T21:58:49.990Z,98242.00
2022-11-12T22:04:10.922Z,98232.00
2022-11-12T22:09:34.367Z,98224.00
2022-11-12T22:14:53.904Z,98237.00
2022-11-12T22:20:13.623Z,98225.00
2022-11-12T22:25:32.952Z,98229.00
2022-11-12T22:30:52.647Z,98222.00
2022-11-12T22:36:14.532Z,98217.00
2022-11-12T22:41:34.088Z,98220.00
2022-11-12T22:46:53.536Z,98215.00
2022-11-12T22:52:13.623Z,98219.00
2022-11-12T22:57:33.317Z,98209.00
2022-11-12T23:02:53.021Z,98208.00
2022-11-12T23:08:12.512Z,98215.00
2022-11-12T23:13:32.419Z,98205.00
2022-11-12T23:18:52.635Z,98211.00
2022-11-12T23:24:11.833Z,98210.00
2022-11-12T23:29:31.302Z,98206.00
2022-11-12T23:34:54.012Z,98196.00
2022-11-12T23:40:14.559Z,98192.00
2022-11-12T23:45:39.761Z,98185.00
2022-11-12T23:51:05.136Z,98171.00
2022-11-12T23:56:24.991Z,98169.00
